createdAt,value
2023-03-04T00:01:24.468Z,93.77
2023-03-04T00:03:27.770Z,93.94
2023-03-04T00:05:31.330Z,94.38
2023-03-04T00:07:34.648Z,93.71
2023-03-04T00:09:38.076Z,94.57
2023-03-04T00:11:42.942Z,94.76
2023-03-04T00:13:46.264Z,93.98
2023-03-04T00:15:49.859Z,94.16
2023-03-04T00:17:53.201Z,94.48
2023-03-04T00:19:56.511Z,94.20
2023-03-04T00:21:59.828Z,94.54
2023-03-04T00:24:03.232Z,94.04
2023-03-04T00:26:08.031Z,94.12
2023-03-04T00:28:13.017Z,94.39
2023-03-04T00:30:16.750Z,94.38
2023-03-04T00:32:20.091Z,94.50
2023-03-04T00:34:23.529Z,94.33
2023-03-04T00:36:26.914Z,94.30
2023-03-04T00:38:32.429Z,94.27
2023-03-04T00:40:35.722Z,94.20
2023-03-04T00:42:41.149Z,94.23
2023-03-04T00:44:46.023Z,94.03
2023-03-04T00:46:49.328Z,94.52
2023-03-04T00:48:52.571Z,94.30
2023-03-04T00:50:56.152Z,94.41
2023-03-04T00:52:59.397Z,94.64
2023-03-04T00:55:02.697Z,94.58
2023-03-04T00:57:05.945Z,94.25
2023-03-04T00:59:09.248Z,94.52
2023-03-04T01:01:14.038Z,95.09
2023-03-04T01:03:17.396Z,95.17
2023-03-04T01:05:20.881Z,94.91
2023-03-04T01:07:24.208Z,94.85
2023-03-04T01:09:28.001Z,95.22
2023-03-04T01:11:31.309Z,94.54
2023-03-04T01:13:34.956Z,94.27
2023-03-04T01:15:38.233Z,94.79
2023-03-04T01:17:43.481Z,94.58
2023-03-04T01:19:47.117Z,93.81
2023-03-04T01:21:50.862Z,93.88
2023-03-04T01:23:54.077Z,93.36
2023-03-04T01:25:57.452Z,93.69
2023-03-04T01:28:01.666Z,93.49
2023-03-04T01:30:06.948Z,93.44
2023-03-04T01:32:10.326Z,93.64
2023-03-04T01:34:15.022Z,93.30
2023-03-04T01:36:18.306Z,93.29
2023-03-04T01:38:21.531Z,93.40
2023-03-04T01:40:25.078Z,93.17
2023-03-04T01:42:31.887Z,93.72
2023-03-04T01:44:36.189Z,94.21
2023-03-04T01:46:40.881Z,93.72
2023-03-04T01:48:44.719Z,93.82
2023-03-04T01:50:50.194Z,94.03
2023-03-04T01:52:53.572Z,94.56
2023-03-04T01:54:58.872Z,93.80
2023-03-04T01:57:02.082Z,93.71
2023-03-04T01:59:13.223Z,93.43
2023-03-04T02:01:16.950Z,93.38
2023-03-04T02:03:20.962Z,92.87
2023-03-04T02:05:24.896Z,93.42
2023-03-04T02:07:29.565Z,94.02
2023-03-04T02:09:34.337Z,94.21
2023-03-04T02:11:38.453Z,94.10
2023-03-04T02:13:41.680Z,93.15
2023-03-04T02:15:46.835Z,93.78
2023-03-04T02:17:49.801Z,93.62
2023-03-04T02:20:02.346Z,93.36
2023-03-04T02:22:05.913Z,93.48
2023-03-04T02:24:18.997Z,93.98
2023-03-04T02:26:25.208Z,93.50
2023-03-04T02:28:29.988Z,93.66
2023-03-04T02:30:33.256Z,93.90
2023-03-04T02:32:36.657Z,93.66
2023-03-04T02:34:46.161Z,94.85
2023-03-04T02:36:52.514Z,94.39
2023-03-04T02:38:57.212Z,94.64
2023-03-04T02:41:00.614Z,94.38
2023-03-04T02:43:05.236Z,94.30
2023-03-04T02:45:32.489Z,94.24
2023-03-04T02:47:36.834Z,94.43
2023-03-04T02:49:42.558Z,94.73
2023-03-04T02:51:45.941Z,94.60
2023-03-04T02:53:49.155Z,95.10
2023-03-04T02:55:52.690Z,94.60
2023-03-04T02:57:58.790Z,95.00
2023-03-04T03:00:03.696Z,94.77
2023-03-04T03:02:07.353Z,94.51
2023-03-04T03:04:11.016Z,94.67
2023-03-04T03:06:14.432Z,94.42
2023-03-04T03:08:17.898Z,93.78
2023-03-04T03:10:21.459Z,93.72
2023-03-04T03:12:24.790Z,94.01
2023-03-04T03:14:28.181Z,94.00
2023-03-04T03:16:33.172Z,93.49
2023-03-04T03:18:36.731Z,93.18
2023-03-04T03:20:42.176Z,92.76
2023-03-04T03:22:45.778Z,92.61
2023-03-04T03:24:49.062Z,92.44
2023-03-04T03:26:52.336Z,92.49
2023-03-04T03:28:55.554Z,92.59
2023-03-04T03:30:58.917Z,92.53
2023-03-04T03:33:03.826Z,92.46
2023-03-04T03:35:07.764Z,92.24
2023-03-04T03:37:11.209Z,92.19
2023-03-04T03:39:15.689Z,92.08
2023-03-04T03:41:19.038Z,92.19
2023-03-04T03:43:22.263Z,91.58
2023-03-04T03:45:25.544Z,91.73
2023-03-04T03:47:28.903Z,90.97
2023-03-04T03:49:33.649Z,91.29
2023-03-04T03:51:36.937Z,90.27
2023-03-04T03:53:40.197Z,90.48
2023-03-04T03:55:43.492Z,90.33
2023-03-04T03:57:46.851Z,90.06
2023-03-04T03:59:50.172Z,90.15
2023-03-04T04:01:53.523Z,90.25
2023-03-04T04:03:56.919Z,89.44
2023-03-04T04:06:01.715Z,89.20
2023-03-04T04:08:05.204Z,88.66
2023-03-04T04:10:09.870Z,88.08
2023-03-04T04:12:15.070Z,88.43
2023-03-04T04:14:18.041Z,88.36
2023-03-04T04:16:21.356Z,88.66
2023-03-04T04:18:25.982Z,88.61
2023-03-04T04:20:29.543Z,87.94
2023-03-04T04:22:34.174Z,87.77
2023-03-04T04:24:37.470Z,87.72
2023-03-04T04:26:40.773Z,87.54
2023-03-04T04:28:44.056Z,87.90
2023-03-04T04:30:47.282Z,87.76
2023-03-04T04:32:50.743Z,87.75
2023-03-04T04:34:53.961Z,87.74
2023-03-04T04:36:57.715Z,87.69
2023-03-04T04:39:02.399Z,87.46
2023-03-04T04:41:06.347Z,87.02
2023-03-04T04:43:09.778Z,87.05
2023-03-04T04:45:13.254Z,87.18
2023-03-04T04:47:16.485Z,87.28
2023-03-04T04:49:19.933Z,86.58
2023-03-04T04:51:23.205Z,87.23
2023-03-04T04:53:26.493Z,87.11
2023-03-04T04:55:31.115Z,87.20
2023-03-04T04:57:35.153Z,87.34
2023-03-04T04:59:38.327Z,86.59
2023-03-04T05:01:42.156Z,86.94
2023-03-04T05:03:45.566Z,86.71
2023-03-04T05:05:48.968Z,86.32
2023-03-04T05:07:52.436Z,86.61
2023-03-04T05:09:55.853Z,86.72
2023-03-04T05:12:00.972Z,86.81
2023-03-04T05:14:04.802Z,86.49
2023-03-04T05:16:09.572Z,86.44
2023-03-04T05:18:12.286Z,86.27
2023-03-04T05:20:15.762Z,85.99
2023-03-04T05:22:19.511Z,86.21
2023-03-04T05:24:23.368Z,86.43
2023-03-04T05:26:26.945Z,86.25
2023-03-04T05:28:31.923Z,86.02
2023-03-04T05:30:35.787Z,85.44
2023-03-04T05:32:39.419Z,85.44
2023-03-04T05:34:43.191Z,85.53
2023-03-04T05:36:46.940Z,85.31
2023-03-04T05:38:50.720Z,84.92
2023-03-04T05:40:59.341Z,84.92
2023-03-04T05:43:03.452Z,85.27
2023-03-04T05:45:09.908Z,85.13
2023-03-04T05:47:13.586Z,84.84
2023-03-04T05:49:17.227Z,85.23
2023-03-04T05:51:21.244Z,85.28
2023-03-04T05:53:25.523Z,85.13
2023-03-04T05:55:30.170Z,84.80
2023-03-04T05:57:33.828Z,84.70
2023-03-04T05:59:37.367Z,84.53
2023-03-04T06:01:42.365Z,84.84
2023-03-04T06:03:48.665Z,84.79
2023-03-04T06:05:52.314Z,84.65
2023-03-04T06:07:55.919Z,84.50
2023-03-04T06:09:59.614Z,84.43
2023-03-04T06:12:03.436Z,84.61
2023-03-04T06:14:07.197Z,84.35
2023-03-04T06:16:11.442Z,84.44
2023-03-04T06:18:16.397Z,84.41
2023-03-04T06:20:20.218Z,84.02
2023-03-04T06:22:23.963Z,83.82
2023-03-04T06:24:28.494Z,83.92
2023-03-04T06:26:32.513Z,84.00
2023-03-04T06:28:36.047Z,84.12
2023-03-04T06:30:39.458Z,84.52
2023-03-04T06:32:44.468Z,84.20
2023-03-04T06:34:49.472Z,83.71
2023-03-04T06:36:53.353Z,83.81
2023-03-04T06:38:56.993Z,83.90
2023-03-04T06:41:08.338Z,83.16
2023-03-04T06:43:11.851Z,84.02
2023-03-04T06:45:15.506Z,83.34
2023-03-04T06:47:19.652Z,83.70
2023-03-04T06:49:23.072Z,83.51
2023-03-04T06:51:28.273Z,83.66
2023-03-04T06:53:31.202Z,83.15
2023-03-04T06:55:34.497Z,83.61
2023-03-04T06:57:37.912Z,84.03
2023-03-04T06:59:41.281Z,84.04
2023-03-04T07:01:44.595Z,84.02
2023-03-04T07:03:48.962Z,84.17
2023-03-04T07:05:52.254Z,84.25
2023-03-04T07:07:57.057Z,84.63
2023-03-04T07:10:00.276Z,84.91
2023-03-04T07:12:03.579Z,84.81
2023-03-04T07:14:07.027Z,84.81
2023-03-04T07:16:12.789Z,84.84
2023-03-04T07:18:16.132Z,85.11
2023-03-04T07:20:19.530Z,85.36
2023-03-04T07:22:22.770Z,84.65
2023-03-04T07:24:27.435Z,85.09
2023-03-04T07:26:30.825Z,85.21
2023-03-04T07:28:34.696Z,85.03
2023-03-04T07:30:38.058Z,85.83
2023-03-04T07:32:41.297Z,85.15
2023-03-04T07:34:44.575Z,85.31
2023-03-04T07:36:47.889Z,85.40
2023-03-04T07:38:52.038Z,85.12
2023-03-04T07:41:00.375Z,84.69
2023-03-04T07:43:03.653Z,84.69
2023-03-04T07:45:08.819Z,84.49
2023-03-04T07:47:12.221Z,84.50
2023-03-04T07:49:15.930Z,84.78
2023-03-04T07:51:21.284Z,84.42
2023-03-04T07:53:24.606Z,84.37
2023-03-04T07:55:28.051Z,83.45
2023-03-04T07:57:32.745Z,83.35
2023-03-04T07:59:35.967Z,83.54
2023-03-04T08:01:39.650Z,82.81
2023-03-04T08:03:43.605Z,82.82
2023-03-04T08:05:46.868Z,82.71
2023-03-04T08:07:50.160Z,82.33
2023-03-04T08:09:53.571Z,82.90
2023-03-04T08:11:56.888Z,82.79
2023-03-04T08:14:01.621Z,82.35
2023-03-04T08:16:06.542Z,81.91
2023-03-04T08:18:10.555Z,82.12
2023-03-04T08:20:14.781Z,81.77
2023-03-04T08:22:18.375Z,81.89
2023-03-04T08:24:22.294Z,81.76
2023-03-04T08:26:28.535Z,81.91
2023-03-04T08:28:32.352Z,82.50
2023-03-04T08:30:38.132Z,81.09
2023-03-04T08:32:42.056Z,81.54
2023-03-04T08:34:46.753Z,81.60
2023-03-04T08:36:50.564Z,81.45
2023-03-04T08:38:54.479Z,81.54
2023-03-04T08:40:58.666Z,81.72
2023-03-04T08:43:02.548Z,81.81
2023-03-04T08:45:07.476Z,81.09
2023-03-04T08:47:12.911Z,81.28
2023-03-04T08:49:16.883Z,81.05
2023-03-04T08:51:20.729Z,81.19
2023-03-04T08:53:25.165Z,80.85
2023-03-04T08:55:29.363Z,81.07
2023-03-04T08:57:33.507Z,81.56
2023-03-04T08:59:38.541Z,81.27
2023-03-04T09:01:43.866Z,80.78
2023-03-04T09:03:49.360Z,79.90
2023-03-04T09:05:53.641Z,79.38
2023-03-04T09:07:57.702Z,78.92
2023-03-04T09:10:01.908Z,78.70
2023-03-04T09:12:06.555Z,78.48
2023-03-04T09:14:11.055Z,77.82
2023-03-04T09:16:17.056Z,77.51
2023-03-04T09:18:22.648Z,77.82
2023-03-04T09:20:28.147Z,78.63
2023-03-04T09:22:32.366Z,78.38
2023-03-04T09:24:35.964Z,78.18
2023-03-04T09:26:39.840Z,77.94
2023-03-04T09:28:43.858Z,77.34
2023-03-04T09:30:49.793Z,76.85
2023-03-04T09:32:53.662Z,76.10
2023-03-04T09:34:57.407Z,76.01
2023-03-04T09:37:02.256Z,75.92
2023-03-04T09:39:06.221Z,75.89
2023-03-04T09:41:11.798Z,75.75
2023-03-04T09:43:22.217Z,75.92
2023-03-04T09:45:31.056Z,75.73
2023-03-04T09:47:36.515Z,75.80
2023-03-04T09:49:43.852Z,76.62
2023-03-04T09:51:56.902Z,76.64
2023-03-04T09:54:08.662Z,76.49
2023-03-04T09:56:13.592Z,76.29
2023-03-04T09:58:29.714Z,76.46
2023-03-04T10:00:41.434Z,76.00
2023-03-04T10:02:54.885Z,76.29
2023-03-04T10:05:03.825Z,75.92
2023-03-04T10:07:15.834Z,75.62
2023-03-04T10:09:25.304Z,75.50
2023-03-04T10:11:34.634Z,75.17
2023-03-04T10:13:43.147Z,75.23
2023-03-04T10:15:51.454Z,74.83
2023-03-04T10:18:02.260Z,74.68
2023-03-04T10:20:12.652Z,74.49
2023-03-04T10:22:23.721Z,74.70
2023-03-04T10:24:31.405Z,74.54
2023-03-04T10:26:35.793Z,75.10
2023-03-04T10:28:40.047Z,75.02
2023-03-04T10:30:52.353Z,75.13
2023-03-04T10:32:56.122Z,75.02
2023-03-04T10:34:59.797Z,74.34
2023-03-04T10:37:07.708Z,74.29
2023-03-04T10:39:13.803Z,74.25
2023-03-04T10:41:22.998Z,74.02
2023-03-04T10:43:27.288Z,74.55
2023-03-04T10:45:36.921Z,74.39
2023-03-04T10:47:40.851Z,74.39
2023-03-04T10:49:53.443Z,75.27
2023-03-04T10:52:04.144Z,74.89
2023-03-04T10:54:11.319Z,74.67
2023-03-04T10:56:37.604Z,74.97
2023-03-04T10:58:41.311Z,74.61
2023-03-04T11:00:45.944Z,74.52
2023-03-04T11:02:51.004Z,73.77
2023-03-04T11:04:59.010Z,73.29
2023-03-04T11:07:02.658Z,72.21
2023-03-04T11:09:06.485Z,72.48
2023-03-04T11:11:25.180Z,72.47
2023-03-04T11:13:31.803Z,72.91
2023-03-04T11:15:52.293Z,72.38
2023-03-04T11:17:58.639Z,72.26
2023-03-04T11:20:13.458Z,71.76
2023-03-04T11:22:21.973Z,72.48
2023-03-04T11:24:31.219Z,71.79
2023-03-04T11:26:40.241Z,71.69
2023-03-04T11:28:53.063Z,71.44
2023-03-04T11:30:59.262Z,69.82
2023-03-04T11:33:22.306Z,69.86
2023-03-04T11:35:30.873Z,70.58
2023-03-04T11:37:41.111Z,70.46
2023-03-04T11:39:51.086Z,70.06
2023-03-04T11:42:00.540Z,70.71
2023-03-04T11:44:09.032Z,69.91
2023-03-04T11:46:44.001Z,70.36
2023-03-04T11:48:56.012Z,69.71
2023-03-04T11:51:05.871Z,69.07
2023-03-04T11:53:28.898Z,68.17
2023-03-04T11:55:42.700Z,68.27
2023-03-04T11:57:58.270Z,68.45
2023-03-04T12:00:28.071Z,68.32
2023-03-04T12:02:38.480Z,68.50
2023-03-04T12:05:14.243Z,68.27
2023-03-04T12:07:37.938Z,68.74
2023-03-04T12:09:55.936Z,69.23
2023-03-04T12:12:16.177Z,69.66
2023-03-04T12:14:29.661Z,70.25
2023-03-04T12:17:14.409Z,70.00
2023-03-04T12:19:33.040Z,69.33
2023-03-04T12:21:59.696Z,69.10
2023-03-04T12:24:25.584Z,69.45
2023-03-04T12:26:39.513Z,69.63
2023-03-04T12:28:53.555Z,69.10
2023-03-04T12:31:22.721Z,69.29
2023-03-04T12:33:40.913Z,68.91
2023-03-04T12:35:54.459Z,68.77
2023-03-04T12:38:21.218Z,68.75
2023-03-04T12:40:46.617Z,67.85
2023-03-04T12:43:06.502Z,68.24
2023-03-04T12:45:20.596Z,68.11
2023-03-04T12:47:34.975Z,68.43
2023-03-04T12:49:53.688Z,68.27
2023-03-04T12:52:08.115Z,68.50
2023-03-04T12:54:26.297Z,68.34
2023-03-04T12:56:39.250Z,69.02
2023-03-04T12:58:43.230Z,69.21
2023-03-04T13:00:54.727Z,69.75
2023-03-04T13:03:12.614Z,70.12
2023-03-04T13:05:38.600Z,69.62
2023-03-04T13:07:55.010Z,69.51
2023-03-04T13:10:03.361Z,69.57
2023-03-04T13:12:17.155Z,69.83
2023-03-04T13:14:32.841Z,69.75
2023-03-04T13:16:40.925Z,69.59
2023-03-04T13:18:45.374Z,69.41
2023-03-04T13:21:06.695Z,69.07
2023-03-04T13:23:29.454Z,68.64
2023-03-04T13:25:42.531Z,69.13
2023-03-04T13:27:48.850Z,69.48
2023-03-04T13:29:52.424Z,69.07
2023-03-04T13:32:00.141Z,68.96
2023-03-04T13:34:06.455Z,69.18
2023-03-04T13:36:32.554Z,69.08
2023-03-04T13:38:39.856Z,69.31
2023-03-04T13:40:43.567Z,69.09
2023-03-04T13:42:48.010Z,68.99
2023-03-04T13:45:05.176Z,68.52
2023-03-04T13:47:11.385Z,69.03
2023-03-04T13:49:23.791Z,69.47
2023-03-04T13:51:30.798Z,70.40
2023-03-04T13:53:50.333Z,70.32
2023-03-04T13:56:08.329Z,70.29
2023-03-04T13:58:22.989Z,69.80
2023-03-04T14:00:27.589Z,69.54
2023-03-04T14:02:36.578Z,69.35
2023-03-04T14:04:42.858Z,69.23
2023-03-04T14:06:48.917Z,69.22
2023-03-04T14:08:55.596Z,68.60
2023-03-04T14:11:02.072Z,68.41
2023-03-04T14:13:05.810Z,68.10
2023-03-04T14:15:23.771Z,68.16
2023-03-04T14:17:31.294Z,68.21
2023-03-04T14:19:40.645Z,68.07
2023-03-04T14:21:47.417Z,67.81
2023-03-04T14:24:03.702Z,67.74
2023-03-04T14:26:10.348Z,67.83
2023-03-04T14:28:17.193Z,68.09
2023-03-04T14:30:40.837Z,68.23
2023-03-04T14:32:47.488Z,68.70
2023-03-04T14:34:54.784Z,68.22
2023-03-04T14:36:58.971Z,68.02
2023-03-04T14:39:07.376Z,68.18
2023-03-04T14:41:17.358Z,68.00
2023-03-04T14:43:23.291Z,67.91
2023-03-04T14:45:29.486Z,68.16
2023-03-04T14:47:39.227Z,67.76
2023-03-04T14:49:43.580Z,67.78
2023-03-04T14:51:51.029Z,67.85
2023-03-04T14:53:57.309Z,67.96
2023-03-04T14:56:04.775Z,68.04
2023-03-04T14:58:10.871Z,68.10
2023-03-04T15:00:26.773Z,68.01
2023-03-04T15:02:40.717Z,67.67
2023-03-04T15:04:45.621Z,67.40
2023-03-04T15:06:53.370Z,67.25
2023-03-04T15:09:01.801Z,67.50
2023-03-04T15:11:10.766Z,67.58
2023-03-04T15:13:15.059Z,68.04
2023-03-04T15:15:50.343Z,67.58
2023-03-04T15:18:00.042Z,67.79
2023-03-04T15:20:21.660Z,68.07
2023-03-04T15:22:25.444Z,68.13
2023-03-04T15:24:29.249Z,68.34
2023-03-04T15:26:39.537Z,68.10
2023-03-04T15:28:44.585Z,68.25
2023-03-04T15:30:49.025Z,68.14
2023-03-04T15:32:53.727Z,67.96
2023-03-04T15:34:58.795Z,68.03
2023-03-04T15:37:02.817Z,67.45
2023-03-04T15:39:06.691Z,66.75
2023-03-04T15:41:12.781Z,66.73
2023-03-04T15:43:20.379Z,67.07
2023-03-04T15:45:26.426Z,67.07
2023-03-04T15:47:30.779Z,67.22
2023-03-04T15:49:34.786Z,67.48
2023-03-04T15:51:38.808Z,67.64
2023-03-04T15:53:46.447Z,67.28
2023-03-04T15:55:50.286Z,67.48
2023-03-04T15:57:57.042Z,67.44
2023-03-04T16:00:02.922Z,67.29
2023-03-04T16:02:20.234Z,67.12
2023-03-04T16:04:24.486Z,67.32
2023-03-04T16:06:32.442Z,66.84
2023-03-04T16:08:37.092Z,66.95
2023-03-04T16:10:40.983Z,67.16
2023-03-04T16:12:45.557Z,67.23
2023-03-04T16:14:50.399Z,67.26
2023-03-04T16:16:55.856Z,67.31
2023-03-04T16:19:00.182Z,67.07
2023-03-04T16:21:06.247Z,67.09
2023-03-04T16:23:15.053Z,67.31
2023-03-04T16:25:21.188Z,67.37
2023-03-04T16:27:26.824Z,67.28
2023-03-04T16:29:31.323Z,67.28
2023-03-04T16:31:36.347Z,67.22
2023-03-04T16:33:42.518Z,67.57
2023-03-04T16:35:47.702Z,67.64
2023-03-04T16:37:53.543Z,67.87
2023-03-04T16:39:58.181Z,67.96
2023-03-04T16:42:02.814Z,67.34
2023-03-04T16:44:09.404Z,67.89
2023-03-04T16:46:15.708Z,67.83
2023-03-04T16:48:21.060Z,67.82
2023-03-04T16:50:28.623Z,67.80
2023-03-04T16:52:35.908Z,67.56
2023-03-04T16:54:41.007Z,67.88
2023-03-04T16:56:46.145Z,67.79
2023-03-04T16:58:50.313Z,67.70
2023-03-04T17:00:54.508Z,67.70
2023-03-04T17:03:00.453Z,67.51
2023-03-04T17:05:04.630Z,67.77
2023-03-04T17:07:10.960Z,67.72
2023-03-04T17:09:16.910Z,68.10
2023-03-04T17:11:23.581Z,67.70
2023-03-04T17:13:28.129Z,67.97
2023-03-04T17:15:32.698Z,67.58
2023-03-04T17:17:37.569Z,68.30
2023-03-04T17:19:43.286Z,67.91
2023-03-04T17:21:47.340Z,67.96
2023-03-04T17:23:54.201Z,68.05
2023-03-04T17:25:59.342Z,68.40
2023-03-04T17:28:03.503Z,67.86
2023-03-04T17:30:11.698Z,67.83
2023-03-04T17:32:16.508Z,67.56
2023-03-04T17:34:22.030Z,67.56
2023-03-04T17:36:26.185Z,67.77
2023-03-04T17:38:30.805Z,67.37
2023-03-04T17:40:37.406Z,67.44
2023-03-04T17:42:42.089Z,67.48
2023-03-04T17:44:46.918Z,67.82
2023-03-04T17:46:51.647Z,67.29
2023-03-04T17:48:57.002Z,67.13
2023-03-04T17:51:01.548Z,67.09
2023-03-04T17:53:05.963Z,66.91
2023-03-04T17:55:11.479Z,66.87
2023-03-04T17:57:17.132Z,66.64
2023-03-04T17:59:21.996Z,67.17
2023-03-04T18:01:27.002Z,67.14
2023-03-04T18:03:32.073Z,67.27
2023-03-04T18:05:35.837Z,66.94
2023-03-04T18:07:40.325Z,66.99
2023-03-04T18:09:44.674Z,67.35
2023-03-04T18:11:49.053Z,66.89
2023-03-04T18:13:56.618Z,66.91
2023-03-04T18:16:01.310Z,67.22
2023-03-04T18:18:05.844Z,67.47
2023-03-04T18:20:11.256Z,66.89
2023-03-04T18:22:15.605Z,66.98
2023-03-04T18:24:20.039Z,67.17
2023-03-04T18:26:25.523Z,67.47
2023-03-04T18:28:30.550Z,67.39
2023-03-04T18:30:36.569Z,67.43
2023-03-04T18:32:51.403Z,67.19
2023-03-04T18:34:56.347Z,67.64
2023-03-04T18:37:00.636Z,67.33
2023-03-04T18:39:07.718Z,67.09
2023-03-04T18:41:14.027Z,67.58
2023-03-04T18:43:18.900Z,66.88
2023-03-04T18:45:23.559Z,67.18
2023-03-04T18:47:30.026Z,66.83
2023-03-04T18:49:34.314Z,67.14
2023-03-04T18:51:38.895Z,67.03
2023-03-04T18:53:42.746Z,66.74
2023-03-04T18:55:48.186Z,66.73
2023-03-04T18:57:56.515Z,66.91
2023-03-04T19:00:03.206Z,67.36
2023-03-04T19:02:13.523Z,66.85
2023-03-04T19:04:22.704Z,67.32
2023-03-04T19:06:26.783Z,67.26
2023-03-04T19:08:31.792Z,67.08
2023-03-04T19:10:36.184Z,67.32
2023-03-04T19:12:40.457Z,67.19
2023-03-04T19:14:45.239Z,67.43
2023-03-04T19:16:49.694Z,66.91
2023-03-04T19:18:54.281Z,67.08
2023-03-04T19:21:05.143Z,67.26
2023-03-04T19:23:10.922Z,67.09
2023-03-04T19:25:15.343Z,67.14
2023-03-04T19:27:20.080Z,67.18
2023-03-04T19:29:24.680Z,67.26
2023-03-04T19:31:28.969Z,67.37
2023-03-04T19:33:32.811Z,67.38
2023-03-04T19:35:43.212Z,67.22
2023-03-04T19:37:49.257Z,67.26
2023-03-04T19:39:56.150Z,67.18
2023-03-04T19:42:01.539Z,66.93
2023-03-04T19:44:06.462Z,67.25
2023-03-04T19:46:12.501Z,67.50
2023-03-04T19:48:18.030Z,67.67
2023-03-04T19:50:22.294Z,67.49
2023-03-04T19:52:26.458Z,67.61
2023-03-04T19:54:32.408Z,67.82
2023-03-04T19:56:36.881Z,67.67
2023-03-04T19:58:41.363Z,67.70
2023-03-04T20:00:46.018Z,67.70
2023-03-04T20:02:50.615Z,68.17
2023-03-04T20:04:55.171Z,67.82
2023-03-04T20:06:59.723Z,68.15
2023-03-04T20:09:05.638Z,68.05
2023-03-04T20:11:16.371Z,68.21
2023-03-04T20:13:21.824Z,68.03
2023-03-04T20:15:26.123Z,67.84
2023-03-04T20:17:30.713Z,68.40
2023-03-04T20:19:35.999Z,67.79
2023-03-04T20:21:40.184Z,67.98
2023-03-04T20:23:43.870Z,68.41
2023-03-04T20:25:47.989Z,68.33
2023-03-04T20:27:55.424Z,68.42
2023-03-04T20:30:00.851Z,68.08
2023-03-04T20:32:06.881Z,68.37
2023-03-04T20:34:10.772Z,67.99
2023-03-04T20:36:15.017Z,68.07
2023-03-04T20:38:19.127Z,68.45
2023-03-04T20:40:23.323Z,68.21
2023-03-04T20:42:27.803Z,67.94
2023-03-04T20:44:33.393Z,68.22
2023-03-04T20:46:41.444Z,68.29
2023-03-04T20:48:45.922Z,67.86
2023-03-04T20:50:49.982Z,68.60
2023-03-04T20:52:54.743Z,68.29
2023-03-04T20:54:58.833Z,67.81
2023-03-04T20:57:02.886Z,67.89
2023-03-04T20:59:09.885Z,67.83
2023-03-04T21:01:15.764Z,68.05
2023-03-04T21:03:19.931Z,68.32
2023-03-04T21:05:24.307Z,68.25
2023-03-04T21:07:28.405Z,68.19
2023-03-04T21:09:32.866Z,68.14
2023-03-04T21:11:41.083Z,68.35
2023-03-04T21:13:46.211Z,68.23
2023-03-04T21:15:51.015Z,68.12
2023-03-04T21:17:56.489Z,68.40
2023-03-04T21:20:00.910Z,68.50
2023-03-04T21:22:06.114Z,68.58
2023-03-04T21:24:14.937Z,68.05
2023-03-04T21:26:20.045Z,68.47
2023-03-04T21:28:23.805Z,68.50
2023-03-04T21:30:29.321Z,68.00
2023-03-04T21:32:33.620Z,68.21
2023-03-04T21:34:43.523Z,68.45
2023-03-04T21:36:47.481Z,68.12
2023-03-04T21:38:51.883Z,68.38
2023-03-04T21:40:55.905Z,68.69
2023-03-04T21:42:59.735Z,68.40
2023-03-04T21:45:04.077Z,68.39
2023-03-04T21:47:08.366Z,68.07
2023-03-04T21:49:14.863Z,68.31
2023-03-04T21:51:20.774Z,68.16
2023-03-04T21:53:25.204Z,68.47
2023-03-04T21:55:29.309Z,68.16
2023-03-04T21:57:33.985Z,68.24
2023-03-04T21:59:39.129Z,68.42
2023-03-04T22:01:43.212Z,68.51
2023-03-04T22:03:49.222Z,68.47
2023-03-04T22:05:52.774Z,68.86
2023-03-04T22:07:58.632Z,68.74
2023-03-04T22:10:03.410Z,68.66
2023-03-04T22:12:08.588Z,68.71
2023-03-04T22:14:13.525Z,68.58
2023-03-04T22:16:17.735Z,68.64
2023-03-04T22:18:22.439Z,68.80
2023-03-04T22:20:26.852Z,68.97
2023-03-04T22:22:31.908Z,69.18
2023-03-04T22:24:37.130Z,68.64
2023-03-04T22:26:41.184Z,68.70
2023-03-04T22:28:46.042Z,68.81
2023-03-04T22:30:50.053Z,69.01
2023-03-04T22:32:54.496Z,69.31
2023-03-04T22:34:58.760Z,69.04
2023-03-04T22:37:02.425Z,69.18
2023-03-04T22:39:09.069Z,69.75
2023-03-04T22:41:19.215Z,69.67
2023-03-04T22:43:23.168Z,69.94
2023-03-04T22:45:28.642Z,69.80
2023-03-04T22:47:32.419Z,69.88
2023-03-04T22:49:36.611Z,69.84
2023-03-04T22:51:42.910Z,70.02
2023-03-04T22:53:47.032Z,69.96
2023-03-04T22:55:50.917Z,70.44
2023-03-04T22:57:56.424Z,70.71
2023-03-04T23:00:00.640Z,70.21
2023-03-04T23:02:04.922Z,70.37
2023-03-04T23:04:09.402Z,69.95
2023-03-04T23:06:16.320Z,70.54
2023-03-04T23:08:20.274Z,70.56
2023-03-04T23:10:26.748Z,70.76
2023-03-04T23:12:31.602Z,71.11
2023-03-04T23:14:37.505Z,71.10
2023-03-04T23:16:44.746Z,70.88
2023-03-04T23:18:50.228Z,71.24
2023-03-04T23:20:54.721Z,71.37
2023-03-04T23:22:58.700Z,71.14
2023-03-04T23:25:02.603Z,71.34
2023-03-04T23:27:06.623Z,71.57
2023-03-04T23:29:13.913Z,71.63
2023-03-04T23:31:19.951Z,71.76
2023-03-04T23:33:24.200Z,71.69
2023-03-04T23:35:28.010Z,71.56
2023-03-04T23:37:31.826Z,72.10
2023-03-04T23:39:36.039Z,71.69
2023-03-04T23:41:40.616Z,71.82
2023-03-04T23:43:45.389Z,72.21
2023-03-04T23:45:49.889Z,71.77
2023-03-04T23:47:55.486Z,71.85
2023-03-04T23:50:00.474Z,71.59
2023-03-04T23:52:05.100Z,71.77
2023-03-04T23:54:09.514Z,72.34
2023-03-04T23:56:15.302Z,72.30
2023-03-04T23:58:19.256Z,72.10
